sensor_id;sensor_type;location;lat;lon;timestamp;P1;durP1;ratioP1;P2;durP2;ratioP2
74168;SDS011;62523;53.336;83.690;2023-01-28T00:01:17;16.77;;;9.75;;
74168;SDS011;62523;53.336;83.690;2023-01-28T00:06:18;17.17;;;8.85;;
74168;SDS011;62523;53.336;83.690;2023-01-28T00:11:20;19.97;;;10.13;;
74168;SDS011;62523;53.336;83.690;2023-01-28T00:16:24;18.95;;;9.45;;
74168;SDS011;62523;53.336;83.690;2023-01-28T00:21:29;16.15;;;9.15;;
74168;SDS011;62523;53.336;83.690;2023-01-28T00:26:31;17.90;;;8.93;;
74168;SDS011;62523;53.336;83.690;2023-01-28T00:31:32;15.60;;;8.95;;
74168;SDS011;62523;53.336;83.690;2023-01-28T00:41:38;14.93;;;8.48;;
74168;SDS011;62523;53.336;83.690;2023-01-28T00:46:39;18.77;;;9.25;;
74168;SDS011;62523;53.336;83.690;2023-01-28T00:51:41;15.43;;;8.40;;
74168;SDS011;62523;53.336;83.690;2023-01-28T00:56:42;20.80;;;9.05;;
74168;SDS011;62523;53.336;83.690;2023-01-28T01:01:43;16.57;;;10.13;;
74168;SDS011;62523;53.336;83.690;2023-01-28T01:06:45;20.48;;;9.23;;
74168;SDS011;62523;53.336;83.690;2023-01-28T01:11:46;22.83;;;9.05;;
74168;SDS011;62523;53.336;83.690;2023-01-28T01:16:47;18.48;;;9.85;;
74168;SDS011;62523;53.336;83.690;2023-01-28T01:21:48;17.57;;;9.17;;
74168;SDS011;62523;53.336;83.690;2023-01-28T01:26:49;13.13;;;8.23;;
74168;SDS011;62523;53.336;83.690;2023-01-28T01:31:50;19.88;;;10.02;;
74168;SDS011;62523;53.336;83.690;2023-01-28T01:36:52;16.50;;;9.70;;
74168;SDS011;62523;53.336;83.690;2023-01-28T01:41:53;14.73;;;9.97;;
74168;SDS011;62523;53.336;83.690;2023-01-28T01:46:54;27.43;;;14.07;;
74168;SDS011;62523;53.336;83.690;2023-01-28T01:52:09;16.93;;;8.03;;
74168;SDS011;62523;53.336;83.690;2023-01-28T01:57:13;15.40;;;5.15;;
74168;SDS011;62523;53.336;83.690;2023-01-28T02:02:18;13.02;;;6.03;;
74168;SDS011;62523;53.336;83.690;2023-01-28T02:07:20;13.43;;;5.45;;
74168;SDS011;62523;53.336;83.690;2023-01-28T02:12:22;12.15;;;5.95;;
74168;SDS011;62523;53.336;83.690;2023-01-28T02:17:27;4.78;;;2.92;;
74168;SDS011;62523;53.336;83.690;2023-01-28T02:22:54;8.80;;;5.55;;
74168;SDS011;62523;53.336;83.690;2023-01-28T02:33:40;10.73;;;5.72;;
74168;SDS011;62523;53.336;83.690;2023-01-28T02:38:46;11.90;;;6.25;;
74168;SDS011;62523;53.336;83.690;2023-01-28T02:43:50;8.18;;;5.55;;
74168;SDS011;62523;53.336;83.690;2023-01-28T02:48:51;12.32;;;7.43;;
74168;SDS011;62523;53.336;83.690;2023-01-28T02:54:02;11.20;;;6.13;;
74168;SDS011;62523;53.336;83.690;2023-01-28T02:59:27;14.85;;;6.07;;
74168;SDS011;62523;53.336;83.690;2023-01-28T03:04:32;14.65;;;5.30;;
74168;SDS011;62523;53.336;83.690;2023-01-28T03:09:38;18.40;;;5.43;;
74168;SDS011;62523;53.336;83.690;2023-01-28T03:14:44;8.40;;;5.38;;
74168;SDS011;62523;53.336;83.690;2023-01-28T03:20:08;7.88;;;4.07;;
74168;SDS011;62523;53.336;83.690;2023-01-28T03:25:28;7.55;;;3.63;;
74168;SDS011;62523;53.336;83.690;2023-01-28T03:30:51;12.57;;;5.70;;
74168;SDS011;62523;53.336;83.690;2023-01-28T03:36:22;15.27;;;4.43;;
74168;SDS011;62523;53.336;83.690;2023-01-28T03:41:41;17.42;;;5.85;;
74168;SDS011;62523;53.336;83.690;2023-01-28T03:46:43;14.80;;;6.30;;
74168;SDS011;62523;53.336;83.690;2023-01-28T03:51:45;8.15;;;4.63;;
74168;SDS011;62523;53.336;83.690;2023-01-28T03:56:47;14.90;;;6.95;;
74168;SDS011;62523;53.336;83.690;2023-01-28T04:01:49;9.35;;;2.78;;
74168;SDS011;62523;53.336;83.690;2023-01-28T04:06:50;9.85;;;4.10;;
74168;SDS011;62523;53.336;83.690;2023-01-28T04:11:52;16.73;;;4.57;;
74168;SDS011;62523;53.336;83.690;2023-01-28T04:16:54;11.77;;;5.77;;
74168;SDS011;62523;53.336;83.690;2023-01-28T04:21:55;9.35;;;3.55;;
74168;SDS011;62523;53.336;83.690;2023-01-28T04:26:57;12.38;;;5.18;;
74168;SDS011;62523;53.336;83.690;2023-01-28T04:31:58;15.13;;;4.70;;
74168;SDS011;62523;53.336;83.690;2023-01-28T04:36:59;10.37;;;5.70;;
74168;SDS011;62523;53.336;83.690;2023-01-28T04:42:00;17.73;;;4.93;;
74168;SDS011;62523;53.336;83.690;2023-01-28T04:47:01;11.95;;;5.13;;
74168;SDS011;62523;53.336;83.690;2023-01-28T04:52:03;8.63;;;5.15;;
74168;SDS011;62523;53.336;83.690;2023-01-28T04:57:04;14.73;;;8.73;;
74168;SDS011;62523;53.336;83.690;2023-01-28T05:02:05;14.30;;;5.97;;
74168;SDS011;62523;53.336;83.690;2023-01-28T05:07:06;15.45;;;7.65;;
74168;SDS011;62523;53.336;83.690;2023-01-28T05:12:07;12.90;;;5.47;;
74168;SDS011;62523;53.336;83.690;2023-01-28T05:17:08;25.75;;;10.13;;
74168;SDS011;62523;53.336;83.690;2023-01-28T05:22:09;9.45;;;5.57;;
74168;SDS011;62523;53.336;83.690;2023-01-28T05:27:11;9.40;;;4.95;;
74168;SDS011;62523;53.336;83.690;2023-01-28T05:32:12;29.17;;;7.97;;
74168;SDS011;62523;53.336;83.690;2023-01-28T05:37:13;10.98;;;6.32;;
74168;SDS011;62523;53.336;83.690;2023-01-28T05:42:14;8.63;;;4.50;;
74168;SDS011;62523;53.336;83.690;2023-01-28T05:47:16;8.73;;;3.58;;
74168;SDS011;62523;53.336;83.690;2023-01-28T05:52:18;5.07;;;3.33;;
74168;SDS011;62523;53.336;83.690;2023-01-28T05:57:19;15.50;;;6.15;;
74168;SDS011;62523;53.336;83.690;2023-01-28T06:02:20;16.75;;;9.70;;
74168;SDS011;62523;53.336;83.690;2023-01-28T06:07:21;17.17;;;9.97;;
74168;SDS011;62523;53.336;83.690;2023-01-28T06:12:23;18.33;;;11.02;;
74168;SDS011;62523;53.336;83.690;2023-01-28T06:17:24;21.87;;;14.10;;
74168;SDS011;62523;53.336;83.690;2023-01-28T06:22:25;16.17;;;9.83;;
74168;SDS011;62523;53.336;83.690;2023-01-28T06:27:27;17.90;;;11.47;;
74168;SDS011;62523;53.336;83.690;2023-01-28T06:32:28;15.48;;;9.23;;
74168;SDS011;62523;53.336;83.690;2023-01-28T06:37:29;15.70;;;9.77;;
74168;SDS011;62523;53.336;83.690;2023-01-28T06:42:31;23.48;;;10.30;;
74168;SDS011;62523;53.336;83.690;2023-01-28T06:47:32;13.53;;;7.83;;
74168;SDS011;62523;53.336;83.690;2023-01-28T06:52:33;17.13;;;10.40;;
74168;SDS011;62523;53.336;83.690;2023-01-28T06:57:36;19.40;;;11.43;;
74168;SDS011;62523;53.336;83.690;2023-01-28T07:02:40;19.35;;;12.60;;
74168;SDS011;62523;53.336;83.690;2023-01-28T07:07:42;23.60;;;11.93;;
74168;SDS011;62523;53.336;83.690;2023-01-28T07:12:43;18.90;;;11.10;;
74168;SDS011;62523;53.336;83.690;2023-01-28T07:17:44;34.87;;;18.67;;
74168;SDS011;62523;53.336;83.690;2023-01-28T07:22:45;25.67;;;9.93;;
74168;SDS011;62523;53.336;83.690;2023-01-28T07:27:50;14.77;;;10.30;;
74168;SDS011;62523;53.336;83.690;2023-01-28T07:32:53;8.95;;;4.97;;
74168;SDS011;62523;53.336;83.690;2023-01-28T07:37:56;11.77;;;6.47;;
74168;SDS011;62523;53.336;83.690;2023-01-28T07:42:59;10.52;;;6.00;;
74168;SDS011;62523;53.336;83.690;2023-01-28T07:48:01;14.10;;;6.07;;
74168;SDS011;62523;53.336;83.690;2023-01-28T07:53:05;21.45;;;6.75;;
74168;SDS011;62523;53.336;83.690;2023-01-28T07:58:08;11.15;;;4.65;;
74168;SDS011;62523;53.336;83.690;2023-01-28T08:03:14;9.75;;;5.78;;
74168;SDS011;62523;53.336;83.690;2023-01-28T08:08:16;16.52;;;5.63;;
74168;SDS011;62523;53.336;83.690;2023-01-28T08:13:17;18.98;;;6.88;;
74168;SDS011;62523;53.336;83.690;2023-01-28T08:18:19;6.65;;;4.13;;
74168;SDS011;62523;53.336;83.690;2023-01-28T08:23:20;8.67;;;4.60;;
74168;SDS011;62523;53.336;83.690;2023-01-28T08:28:22;15.15;;;6.95;;
74168;SDS011;62523;53.336;83.690;2023-01-28T08:33:23;8.77;;;4.60;;
74168;SDS011;62523;53.336;83.690;2023-01-28T08:38:24;4.53;;;3.08;;
74168;SDS011;62523;53.336;83.690;2023-01-28T08:43:25;10.03;;;6.53;;
74168;SDS011;62523;53.336;83.690;2023-01-28T08:48:27;11.43;;;5.73;;
74168;SDS011;62523;53.336;83.690;2023-01-28T08:53:28;11.10;;;4.53;;
74168;SDS011;62523;53.336;83.690;2023-01-28T08:58:29;7.83;;;4.50;;
74168;SDS011;62523;53.336;83.690;2023-01-28T09:03:30;12.50;;;5.33;;
74168;SDS011;62523;53.336;83.690;2023-01-28T09:08:31;10.23;;;5.70;;
74168;SDS011;62523;53.336;83.690;2023-01-28T09:13:33;13.13;;;5.57;;
74168;SDS011;62523;53.336;83.690;2023-01-28T09:18:34;6.07;;;3.73;;
74168;SDS011;62523;53.336;83.690;2023-01-28T09:23:35;11.77;;;4.70;;
74168;SDS011;62523;53.336;83.690;2023-01-28T09:28:37;10.40;;;3.88;;
74168;SDS011;62523;53.336;83.690;2023-01-28T09:33:39;8.88;;;5.03;;
74168;SDS011;62523;53.336;83.690;2023-01-28T09:38:40;9.30;;;4.50;;
74168;SDS011;62523;53.336;83.690;2023-01-28T09:49:19;12.73;;;5.72;;
74168;SDS011;62523;53.336;83.690;2023-01-28T09:54:34;15.35;;;5.30;;
74168;SDS011;62523;53.336;83.690;2023-01-28T09:59:49;6.70;;;3.83;;
74168;SDS011;62523;53.336;83.690;2023-01-28T10:10:28;13.38;;;6.85;;
74168;SDS011;62523;53.336;83.690;2023-01-28T10:20:56;18.02;;;7.22;;
74168;SDS011;62523;53.336;83.690;2023-01-28T10:26:11;15.70;;;7.27;;
74168;SDS011;62523;53.336;83.690;2023-01-28T10:31:22;12.57;;;5.30;;
74168;SDS011;62523;53.336;83.690;2023-01-28T10:36:27;20.30;;;6.50;;
74168;SDS011;62523;53.336;83.690;2023-01-28T10:41:29;14.45;;;5.03;;
74168;SDS011;62523;53.336;83.690;2023-01-28T10:51:37;11.88;;;5.35;;
74168;SDS011;62523;53.336;83.690;2023-01-28T10:56:40;10.77;;;5.32;;
74168;SDS011;62523;53.336;83.690;2023-01-28T11:01:50;12.65;;;4.07;;
74168;SDS011;62523;53.336;83.690;2023-01-28T11:06:54;13.82;;;4.68;;
74168;SDS011;62523;53.336;83.690;2023-01-28T11:17:26;13.63;;;5.25;;
74168;SDS011;62523;53.336;83.690;2023-01-28T11:22:42;12.80;;;5.10;;
74168;SDS011;62523;53.336;83.690;2023-01-28T11:27:48;14.43;;;8.23;;
74168;SDS011;62523;53.336;83.690;2023-01-28T11:32:55;15.57;;;5.25;;
74168;SDS011;62523;53.336;83.690;2023-01-28T11:37:59;9.93;;;4.85;;
74168;SDS011;62523;53.336;83.690;2023-01-28T11:43:01;17.83;;;5.05;;
74168;SDS011;62523;53.336;83.690;2023-01-28T11:58:58;9.77;;;5.82;;
74168;SDS011;62523;53.336;83.690;2023-01-28T12:09:44;14.43;;;5.93;;
74168;SDS011;62523;53.336;83.690;2023-01-28T12:36:18;11.98;;;5.43;;
74168;SDS011;62523;53.336;83.690;2023-01-28T12:41:42;30.70;;;5.70;;
74168;SDS011;62523;53.336;83.690;2023-01-28T12:57:28;9.82;;;4.68;;
74168;SDS011;62523;53.336;83.690;2023-01-28T13:02:33;14.77;;;6.03;;
74168;SDS011;62523;53.336;83.690;2023-01-28T13:07:43;9.45;;;4.30;;
74168;SDS011;62523;53.336;83.690;2023-01-28T13:12:54;7.05;;;3.75;;
74168;SDS011;62523;53.336;83.690;2023-01-28T13:18:00;10.52;;;5.78;;
74168;SDS011;62523;53.336;83.690;2023-01-28T13:23:20;16.15;;;5.63;;
74168;SDS011;62523;53.336;83.690;2023-01-28T13:28:42;14.57;;;5.03;;
74168;SDS011;62523;53.336;83.690;2023-01-28T13:33:47;12.60;;;5.55;;
74168;SDS011;62523;53.336;83.690;2023-01-28T13:44:31;15.18;;;6.30;;
74168;SDS011;62523;53.336;83.690;2023-01-28T13:49:41;9.48;;;5.35;;
74168;SDS011;62523;53.336;83.690;2023-01-28T13:55:33;11.20;;;5.60;;
74168;SDS011;62523;53.336;83.690;2023-01-28T14:17:45;12.13;;;6.00;;
74168;SDS011;62523;53.336;83.690;2023-01-28T14:22:26;8.15;;;5.53;;
74168;SDS011;62523;53.336;83.690;2023-01-28T14:27:30;11.23;;;6.40;;
74168;SDS011;62523;53.336;83.690;2023-01-28T14:32:42;14.30;;;4.47;;
74168;SDS011;62523;53.336;83.690;2023-01-28T14:37:47;15.85;;;5.63;;
74168;SDS011;62523;53.336;83.690;2023-01-28T14:42:49;9.25;;;4.25;;
74168;SDS011;62523;53.336;83.690;2023-01-28T14:58:31;10.10;;;4.70;;
74168;SDS011;62523;53.336;83.690;2023-01-28T15:03:43;7.88;;;3.72;;
74168;SDS011;62523;53.336;83.690;2023-01-28T15:08:45;13.52;;;4.38;;
74168;SDS011;62523;53.336;83.690;2023-01-28T15:13:48;11.20;;;4.65;;
74168;SDS011;62523;53.336;83.690;2023-01-28T15:18:52;7.07;;;3.30;;
74168;SDS011;62523;53.336;83.690;2023-01-28T15:23:58;15.70;;;5.43;;
74168;SDS011;62523;53.336;83.690;2023-01-28T15:29:02;10.15;;;4.55;;
74168;SDS011;62523;53.336;83.690;2023-01-28T15:34:13;12.95;;;4.90;;
74168;SDS011;62523;53.336;83.690;2023-01-28T15:39:20;11.70;;;5.38;;
74168;SDS011;62523;53.336;83.690;2023-01-28T15:44:35;8.05;;;3.78;;
74168;SDS011;62523;53.336;83.690;2023-01-28T15:49:40;16.42;;;7.05;;
74168;SDS011;62523;53.336;83.690;2023-01-28T15:54:44;16.85;;;6.95;;
74168;SDS011;62523;53.336;83.690;2023-01-28T15:59:50;15.10;;;5.15;;
74168;SDS011;62523;53.336;83.690;2023-01-28T16:04:55;10.40;;;4.78;;
74168;SDS011;62523;53.336;83.690;2023-01-28T16:09:58;15.52;;;6.68;;
74168;SDS011;62523;53.336;83.690;2023-01-28T16:15:04;15.40;;;6.78;;
74168;SDS011;62523;53.336;83.690;2023-01-28T16:30:40;16.02;;;6.75;;
74168;SDS011;62523;53.336;83.690;2023-01-28T16:35:42;14.38;;;5.35;;
74168;SDS011;62523;53.336;83.690;2023-01-28T16:40:45;10.95;;;4.28;;
74168;SDS011;62523;53.336;83.690;2023-01-28T16:45:47;14.80;;;4.82;;
74168;SDS011;62523;53.336;83.690;2023-01-28T16:50:48;23.23;;;7.25;;
74168;SDS011;62523;53.336;83.690;2023-01-28T16:55:49;16.40;;;6.25;;
74168;SDS011;62523;53.336;83.690;2023-01-28T17:00:51;7.82;;;4.80;;
74168;SDS011;62523;53.336;83.690;2023-01-28T17:05:53;12.02;;;5.03;;
74168;SDS011;62523;53.336;83.690;2023-01-28T17:10:54;16.70;;;5.30;;
74168;SDS011;62523;53.336;83.690;2023-01-28T17:15:56;6.85;;;4.45;;
74168;SDS011;62523;53.336;83.690;2023-01-28T17:21:03;8.75;;;4.10;;
74168;SDS011;62523;53.336;83.690;2023-01-28T17:26:07;14.70;;;5.18;;
74168;SDS011;62523;53.336;83.690;2023-01-28T17:31:11;9.80;;;4.47;;
74168;SDS011;62523;53.336;83.690;2023-01-28T17:36:13;11.52;;;5.65;;
74168;SDS011;62523;53.336;83.690;2023-01-28T17:41:14;11.45;;;4.07;;
74168;SDS011;62523;53.336;83.690;2023-01-28T17:46:19;9.25;;;3.72;;
74168;SDS011;62523;53.336;83.690;2023-01-28T17:51:21;10.68;;;4.35;;
74168;SDS011;62523;53.336;83.690;2023-01-28T17:56:23;9.33;;;4.93;;
74168;SDS011;62523;53.336;83.690;2023-01-28T18:01:26;10.32;;;4.55;;
74168;SDS011;62523;53.336;83.690;2023-01-28T18:06:33;8.30;;;4.07;;
74168;SDS011;62523;53.336;83.690;2023-01-28T18:11:35;12.95;;;3.72;;
74168;SDS011;62523;53.336;83.690;2023-01-28T18:16:36;8.43;;;3.47;;
74168;SDS011;62523;53.336;83.690;2023-01-28T18:21:38;9.90;;;4.70;;
74168;SDS011;62523;53.336;83.690;2023-01-28T18:26:41;11.20;;;4.88;;
74168;SDS011;62523;53.336;83.690;2023-01-28T18:31:42;9.27;;;5.85;;
74168;SDS011;62523;53.336;83.690;2023-01-28T18:36:43;16.63;;;8.07;;
74168;SDS011;62523;53.336;83.690;2023-01-28T18:41:44;10.68;;;4.78;;
74168;SDS011;62523;53.336;83.690;2023-01-28T18:46:46;14.18;;;4.45;;
74168;SDS011;62523;53.336;83.690;2023-01-28T18:51:47;12.35;;;5.03;;
74168;SDS011;62523;53.336;83.690;2023-01-28T18:56:48;20.92;;;8.75;;
74168;SDS011;62523;53.336;83.690;2023-01-28T19:01:49;17.75;;;5.70;;
74168;SDS011;62523;53.336;83.690;2023-01-28T19:06:53;18.42;;;8.57;;
74168;SDS011;62523;53.336;83.690;2023-01-28T19:11:56;15.40;;;5.85;;
74168;SDS011;62523;53.336;83.690;2023-01-28T19:16:57;16.90;;;7.13;;
74168;SDS011;62523;53.336;83.690;2023-01-28T19:21:59;11.30;;;5.43;;
74168;SDS011;62523;53.336;83.690;2023-01-28T19:27:00;11.32;;;5.03;;
74168;SDS011;62523;53.336;83.690;2023-01-28T19:32:01;17.15;;;6.40;;
74168;SDS011;62523;53.336;83.690;2023-01-28T19:42:04;15.23;;;5.63;;
74168;SDS011;62523;53.336;83.690;2023-01-28T19:47:05;11.25;;;5.35;;
74168;SDS011;62523;53.336;83.690;2023-01-28T19:52:07;16.02;;;3.75;;
74168;SDS011;62523;53.336;83.690;2023-01-28T19:57:10;13.90;;;4.60;;
74168;SDS011;62523;53.336;83.690;2023-01-28T20:02:11;10.10;;;4.15;;
74168;SDS011;62523;53.336;83.690;2023-01-28T20:07:12;12.43;;;4.82;;
74168;SDS011;62523;53.336;83.690;2023-01-28T20:12:13;9.98;;;5.00;;
74168;SDS011;62523;53.336;83.690;2023-01-28T20:17:14;8.73;;;4.82;;
74168;SDS011;62523;53.336;83.690;2023-01-28T20:22:16;11.03;;;5.17;;
74168;SDS011;62523;53.336;83.690;2023-01-28T20:27:17;23.00;;;4.85;;
74168;SDS011;62523;53.336;83.690;2023-01-28T20:32:18;9.77;;;5.03;;
74168;SDS011;62523;53.336;83.690;2023-01-28T20:37:19;15.40;;;6.60;;
74168;SDS011;62523;53.336;83.690;2023-01-28T20:42:20;16.85;;;6.75;;
74168;SDS011;62523;53.336;83.690;2023-01-28T20:47:21;11.00;;;4.20;;
74168;SDS011;62523;53.336;83.690;2023-01-28T20:52:23;8.48;;;3.70;;
74168;SDS011;62523;53.336;83.690;2023-01-28T20:57:24;12.25;;;4.03;;
74168;SDS011;62523;53.336;83.690;2023-01-28T21:02:25;7.57;;;3.60;;
74168;SDS011;62523;53.336;83.690;2023-01-28T21:07:26;21.00;;;10.68;;
74168;SDS011;62523;53.336;83.690;2023-01-28T21:12:27;18.33;;;9.68;;
74168;SDS011;62523;53.336;83.690;2023-01-28T21:22:31;17.20;;;10.05;;
74168;SDS011;62523;53.336;83.690;2023-01-28T21:27:32;15.38;;;8.85;;
74168;SDS011;62523;53.336;83.690;2023-01-28T21:32:35;19.58;;;10.95;;
74168;SDS011;62523;53.336;83.690;2023-01-28T21:37:36;20.15;;;9.73;;
74168;SDS011;62523;53.336;83.690;2023-01-28T21:47:39;19.15;;;9.73;;
74168;SDS011;62523;53.336;83.690;2023-01-28T21:52:40;14.57;;;9.23;;
74168;SDS011;62523;53.336;83.690;2023-01-28T21:57:41;16.98;;;8.68;;
74168;SDS011;62523;53.336;83.690;2023-01-28T22:02:42;17.80;;;8.90;;
74168;SDS011;62523;53.336;83.690;2023-01-28T22:07:43;14.07;;;9.20;;
74168;SDS011;62523;53.336;83.690;2023-01-28T22:12:44;13.97;;;8.53;;
74168;SDS011;62523;53.336;83.690;2023-01-28T22:17:46;16.67;;;9.53;;
74168;SDS011;62523;53.336;83.690;2023-01-28T22:22:47;24.33;;;9.30;;
74168;SDS011;62523;53.336;83.690;2023-01-28T22:27:48;12.43;;;8.05;;
74168;SDS011;62523;53.336;83.690;2023-01-28T22:32:49;15.50;;;7.87;;
74168;SDS011;62523;53.336;83.690;2023-01-28T22:37:50;20.93;;;10.37;;
74168;SDS011;62523;53.336;83.690;2023-01-28T22:42:51;17.87;;;10.70;;
74168;SDS011;62523;53.336;83.690;2023-01-28T22:47:52;16.23;;;10.13;;
74168;SDS011;62523;53.336;83.690;2023-01-28T22:52:53;22.93;;;9.93;;
74168;SDS011;62523;53.336;83.690;2023-01-28T22:57:54;14.90;;;8.90;;
74168;SDS011;62523;53.336;83.690;2023-01-28T23:02:55;20.73;;;10.23;;
74168;SDS011;62523;53.336;83.690;2023-01-28T23:07:56;20.93;;;9.40;;
74168;SDS011;62523;53.336;83.690;2023-01-28T23:13:09;23.00;;;8.20;;
74168;SDS011;62523;53.336;83.690;2023-01-28T23:18:12;13.10;;;8.53;;
74168;SDS011;62523;53.336;83.690;2023-01-28T23:23:37;17.42;;;8.13;;
74168;SDS011;62523;53.336;83.690;2023-01-28T23:28:56;16.42;;;8.13;;
74168;SDS011;62523;53.336;83.690;2023-01-28T23:33:59;18.40;;;9.07;;
74168;SDS011;62523;53.336;83.690;2023-01-28T23:39:01;12.15;;;7.97;;
74168;SDS011;62523;53.336;83.690;2023-01-28T23:44:02;13.10;;;7.30;;
74168;SDS011;62523;53.336;83.690;2023-01-28T23:54:05;20.60;;;8.50;;
74168;SDS011;62523;53.336;83.690;2023-01-28T23:59:07;20.80;;;9.55;;
